sensor_id;sensor_type;location;lat;lon;timestamp;pressure;altitude;pressure_sealevel;temperature;humidity
41334;BME280;27078;46.428;6.256;2023-04-24T00:01:14;95882.97;;;9.01;100.00
41334;BME280;27078;46.428;6.256;2023-04-24T00:03:40;95892.00;;;8.98;100.00
41334;BME280;27078;46.428;6.256;2023-04-24T00:06:06;95887.00;;;8.95;100.00
41334;BME280;27078;46.428;6.256;2023-04-24T00:08:33;95891.31;;;8.96;100.00
41334;BME280;27078;46.428;6.256;2023-04-24T00:10:59;95910.00;;;8.93;100.00
41334;BME280;27078;46.428;6.256;2023-04-24T00:13:25;95924.41;;;8.89;100.00
41334;BME280;27078;46.428;6.256;2023-04-24T00:15:50;95918.19;;;8.90;100.00
41334;BME280;27078;46.428;6.256;2023-04-24T00:18:16;95911.94;;;8.91;100.00
41334;BME280;27078;46.428;6.256;2023-04-24T00:20:42;95915.28;;;8.93;100.00
41334;BME280;27078;46.428;6.256;2023-04-24T00:23:08;95929.25;;;8.45;100.00
41334;BME280;27078;46.428;6.256;2023-04-24T00:25:34;95917.22;;;8.21;100.00
41334;BME280;27078;46.428;6.256;2023-04-24T00:27:59;95911.69;;;8.24;100.00
41334;BME280;27078;46.428;6.256;2023-04-24T00:30:25;95912.53;;;8.25;100.00
41334;BME280;27078;46.428;6.256;2023-04-24T00:32:50;95902.13;;;8.13;100.00
41334;BME280;27078;46.428;6.256;2023-04-24T00:35:15;95909.06;;;8.24;100.00
41334;BME280;27078;46.428;6.256;2023-04-24T00:37:41;95896.09;;;8.32;100.00
41334;BME280;27078;46.428;6.256;2023-04-24T00:40:07;95895.84;;;8.45;100.00
41334;BME280;27078;46.428;6.256;2023-04-24T00:42:33;95895.31;;;8.51;100.00
41334;BME280;27078;46.428;6.256;2023-04-24T00:44:59;95887.53;;;8.50;100.00
41334;BME280;27078;46.428;6.256;2023-04-24T00:47:26;95892.56;;;8.53;100.00
41334;BME280;27078;46.428;6.256;2023-04-24T00:49:51;95886.59;;;8.51;100.00
41334;BME280;27078;46.428;6.256;2023-04-24T00:52:17;95888.38;;;8.50;100.00
41334;BME280;27078;46.428;6.256;2023-04-24T00:54:43;95896.97;;;8.52;100.00
41334;BME280;27078;46.428;6.256;2023-04-24T00:57:10;95901.28;;;8.53;100.00
41334;BME280;27078;46.428;6.256;2023-04-24T00:59:36;95908.59;;;8.50;100.00
41334;BME280;27078;46.428;6.256;2023-04-24T01:02:02;95915.53;;;8.51;100.00
41334;BME280;27078;46.428;6.256;2023-04-24T01:04:27;95911.31;;;8.39;100.00
41334;BME280;27078;46.428;6.256;2023-04-24T01:06:54;95910.25;;;8.41;100.00
41334;BME280;27078;46.428;6.256;2023-04-24T01:09:23;95905.09;;;8.40;100.00
41334;BME280;27078;46.428;6.256;2023-04-24T01:11:49;95903.06;;;8.43;100.00
41334;BME280;27078;46.428;6.256;2023-04-24T01:14:14;95897.78;;;8.43;100.00
41334;BME280;27078;46.428;6.256;2023-04-24T01:16:40;95894.03;;;8.46;100.00
41334;BME280;27078;46.428;6.256;2023-04-24T01:19:06;95889.47;;;8.48;100.00
41334;BME280;27078;46.428;6.256;2023-04-24T01:21:35;95885.44;;;8.44;100.00
41334;BME280;27078;46.428;6.256;2023-04-24T01:24:02;95880.19;;;8.44;100.00
41334;BME280;27078;46.428;6.256;2023-04-24T01:26:27;95884.75;;;8.42;100.00
41334;BME280;27078;46.428;6.256;2023-04-24T01:28:53;95876.13;;;8.40;100.00
41334;BME280;27078;46.428;6.256;2023-04-24T01:31:18;95876.88;;;8.42;100.00
41334;BME280;27078;46.428;6.256;2023-04-24T01:33:44;95881.69;;;8.36;100.00
41334;BME280;27078;46.428;6.256;2023-04-24T01:36:13;95879.06;;;8.36;100.00
41334;BME280;27078;46.428;6.256;2023-04-24T01:38:39;95875.97;;;8.31;100.00
41334;BME280;27078;46.428;6.256;2023-04-24T01:41:04;95882.22;;;8.30;100.00
41334;BME280;27078;46.428;6.256;2023-04-24T01:43:30;95881.78;;;8.25;100.00
41334;BME280;27078;46.428;6.256;2023-04-24T01:45:55;95875.81;;;8.23;100.00
41334;BME280;27078;46.428;6.256;2023-04-24T01:48:22;95875.28;;;8.29;100.00
41334;BME280;27078;46.428;6.256;2023-04-24T01:50:47;95875.16;;;8.31;100.00
41334;BME280;27078;46.428;6.256;2023-04-24T01:53:12;95871.41;;;8.24;100.00
41334;BME280;27078;46.428;6.256;2023-04-24T01:55:38;95867.94;;;8.23;100.00
41334;BME280;27078;46.428;6.256;2023-04-24T01:58:03;95871.41;;;8.24;100.00
41334;BME280;27078;46.428;6.256;2023-04-24T02:00:29;95865.31;;;8.23;100.00
41334;BME280;27078;46.428;6.256;2023-04-24T02:02:54;95863.38;;;8.25;100.00
41334;BME280;27078;46.428;6.256;2023-04-24T02:05:19;95876.53;;;8.25;100.00
41334;BME280;27078;46.428;6.256;2023-04-24T02:07:45;95874.19;;;8.22;100.00
41334;BME280;27078;46.428;6.256;2023-04-24T02:10:11;95873.59;;;8.19;100.00
41334;BME280;27078;46.428;6.256;2023-04-24T02:12:36;95876.09;;;8.20;100.00
41334;BME280;27078;46.428;6.256;2023-04-24T02:15:02;95882.06;;;8.22;100.00
41334;BME280;27078;46.428;6.256;2023-04-24T02:17:28;95875.13;;;8.21;100.00
41334;BME280;27078;46.428;6.256;2023-04-24T02:19:53;95881.25;;;8.22;100.00
41334;BME280;27078;46.428;6.256;2023-04-24T02:22:18;95893.28;;;8.24;100.00
41334;BME280;27078;46.428;6.256;2023-04-24T02:24:44;95886.09;;;8.26;100.00
41334;BME280;27078;46.428;6.256;2023-04-24T02:27:09;95886.09;;;8.26;100.00
41334;BME280;27078;46.428;6.256;2023-04-24T02:29:36;95885.28;;;8.26;100.00
41334;BME280;27078;46.428;6.256;2023-04-24T02:32:01;95884.16;;;8.28;100.00
41334;BME280;27078;46.428;6.256;2023-04-24T02:34:27;95883.34;;;8.28;100.00
41334;BME280;27078;46.428;6.256;2023-04-24T02:36:52;95896.34;;;8.29;100.00
41334;BME280;27078;46.428;6.256;2023-04-24T02:39:19;95905.78;;;8.32;100.00
41334;BME280;27078;46.428;6.256;2023-04-24T02:41:44;95900.22;;;8.35;100.00
41334;BME280;27078;46.428;6.256;2023-04-24T02:44:09;95900.50;;;8.32;100.00
41334;BME280;27078;46.428;6.256;2023-04-24T02:46:35;95895.78;;;8.35;100.00
41334;BME280;27078;46.428;6.256;2023-04-24T02:49:00;95890.53;;;8.35;100.00
41334;BME280;27078;46.428;6.256;2023-04-24T02:51:25;95893.72;;;8.39;100.00
41334;BME280;27078;46.428;6.256;2023-04-24T02:53:52;95907.00;;;8.38;100.00
41334;BME280;27078;46.428;6.256;2023-04-24T02:56:17;95908.00;;;8.36;100.00
41334;BME280;27078;46.428;6.256;2023-04-24T02:58:42;95916.84;;;8.35;100.00
41334;BME280;27078;46.428;6.256;2023-04-24T03:01:08;95931.69;;;8.36;100.00
41334;BME280;27078;46.428;6.256;2023-04-24T03:03:35;95930.47;;;8.41;100.00
41334;BME280;27078;46.428;6.256;2023-04-24T03:06:00;95936.78;;;8.38;100.00
41334;BME280;27078;46.428;6.256;2023-04-24T03:08:26;95939.56;;;8.36;100.00
41334;BME280;27078;46.428;6.256;2023-04-24T03:10:52;95937.66;;;8.39;100.00
41334;BME280;27078;46.428;6.256;2023-04-24T03:13:17;95937.66;;;8.39;100.00
41334;BME280;27078;46.428;6.256;2023-04-24T03:15:42;95943.03;;;8.37;100.00
41334;BME280;27078;46.428;6.256;2023-04-24T03:18:08;95931.31;;;8.41;100.00
41334;BME280;27078;46.428;6.256;2023-04-24T03:20:33;95936.97;;;8.46;100.00
41334;BME280;27078;46.428;6.256;2023-04-24T03:22:58;95934.91;;;8.50;100.00
41334;BME280;27078;46.428;6.256;2023-04-24T03:25:24;95934.09;;;8.49;100.00
41334;BME280;27078;46.428;6.256;2023-04-24T03:27:49;95930.47;;;8.50;100.00
41334;BME280;27078;46.428;6.256;2023-04-24T03:30:14;95933.81;;;8.52;100.00
41334;BME280;27078;46.428;6.256;2023-04-24T03:32:39;95925.78;;;8.54;100.00
41334;BME280;27078;46.428;6.256;2023-04-24T03:35:08;95920.41;;;8.55;100.00
41334;BME280;27078;46.428;6.256;2023-04-24T03:37:34;95917.19;;;8.52;100.00
41334;BME280;27078;46.428;6.256;2023-04-24T03:40:00;95916.25;;;8.53;100.00
41334;BME280;27078;46.428;6.256;2023-04-24T03:42:25;95922.47;;;8.52;100.00
41334;BME280;27078;46.428;6.256;2023-04-24T03:44:50;95924.13;;;8.53;100.00
41334;BME280;27078;46.428;6.256;2023-04-24T03:47:16;95917.31;;;8.50;100.00
41334;BME280;27078;46.428;6.256;2023-04-24T03:49:41;95914.84;;;8.49;100.00
41334;BME280;27078;46.428;6.256;2023-04-24T03:52:06;95908.72;;;8.48;100.00
41334;BME280;27078;46.428;6.256;2023-04-24T03:54:32;95898.06;;;8.50;100.00
41334;BME280;27078;46.428;6.256;2023-04-24T03:56:57;95911.22;;;8.50;100.00
41334;BME280;27078;46.428;6.256;2023-04-24T03:59:23;95921.34;;;8.45;100.00
41334;BME280;27078;46.428;6.256;2023-04-24T04:01:48;95923.50;;;8.40;100.00
41334;BME280;27078;46.428;6.256;2023-04-24T04:04:13;95938.75;;;8.36;100.00
41334;BME280;27078;46.428;6.256;2023-04-24T04:06:39;95940.28;;;8.39;100.00
41334;BME280;27078;46.428;6.256;2023-04-24T04:09:04;95947.59;;;8.35;100.00
41334;BME280;27078;46.428;6.256;2023-04-24T04:11:31;95948.00;;;8.30;100.00
41334;BME280;27078;46.428;6.256;2023-04-24T04:13:56;95950.19;;;8.25;100.00
41334;BME280;27078;46.428;6.256;2023-04-24T04:16:22;95947.56;;;8.25;100.00
41334;BME280;27078;46.428;6.256;2023-04-24T04:18:47;95933.69;;;8.23;100.00
41334;BME280;27078;46.428;6.256;2023-04-24T04:21:13;95935.09;;;8.27;100.00
41334;BME280;27078;46.428;6.256;2023-04-24T04:23:38;95936.38;;;8.33;100.00
41334;BME280;27078;46.428;6.256;2023-04-24T04:26:04;95952.56;;;8.28;100.00
41334;BME280;27078;46.428;6.256;2023-04-24T04:28:31;95955.03;;;8.20;100.00
41334;BME280;27078;46.428;6.256;2023-04-24T04:30:57;95943.09;;;8.16;100.00
41334;BME280;27078;46.428;6.256;2023-04-24T04:33:23;95949.59;;;8.12;100.00
41334;BME280;27078;46.428;6.256;2023-04-24T04:35:48;95951.66;;;8.08;100.00
41334;BME280;27078;46.428;6.256;2023-04-24T04:38:15;95954.56;;;8.05;100.00
41334;BME280;27078;46.428;6.256;2023-04-24T04:40:42;95954.69;;;8.04;100.00
41334;BME280;27078;46.428;6.256;2023-04-24T04:43:08;95958.53;;;8.00;100.00
41334;BME280;27078;46.428;6.256;2023-04-24T04:45:33;95972.91;;;7.95;100.00
41334;BME280;27078;46.428;6.256;2023-04-24T04:47:59;95974.59;;;7.97;100.00
41334;BME280;27078;46.428;6.256;2023-04-24T04:50:28;95983.44;;;7.95;100.00
41334;BME280;27078;46.428;6.256;2023-04-24T04:52:54;95981.78;;;7.94;100.00
41334;BME280;27078;46.428;6.256;2023-04-24T04:55:19;95981.50;;;7.98;100.00
41334;BME280;27078;46.428;6.256;2023-04-24T04:57:45;95982.38;;;7.98;100.00
41334;BME280;27078;46.428;6.256;2023-04-24T05:00:11;95984.66;;;7.91;100.00
41334;BME280;27078;46.428;6.256;2023-04-24T05:02:37;95982.88;;;7.92;100.00
41334;BME280;27078;46.428;6.256;2023-04-24T05:05:03;95987.47;;;8.00;100.00
41334;BME280;27078;46.428;6.256;2023-04-24T05:07:28;95984.63;;;8.12;100.00
41334;BME280;27078;46.428;6.256;2023-04-24T05:09:53;95978.44;;;8.23;100.00
41334;BME280;27078;46.428;6.256;2023-04-24T05:12:19;95983.31;;;8.28;100.00
41334;BME280;27078;46.428;6.256;2023-04-24T05:14:44;96001.31;;;8.32;100.00
41334;BME280;27078;46.428;6.256;2023-04-24T05:17:10;96013.50;;;8.33;100.00
41334;BME280;27078;46.428;6.256;2023-04-24T05:19:35;96016.28;;;8.32;100.00
41334;BME280;27078;46.428;6.256;2023-04-24T05:22:03;96016.13;;;8.24;100.00
41334;BME280;27078;46.428;6.256;2023-04-24T05:24:29;96021.22;;;8.25;100.00
41334;BME280;27078;46.428;6.256;2023-04-24T05:26:54;96021.91;;;8.27;100.00
41334;BME280;27078;46.428;6.256;2023-04-24T05:29:20;96020.28;;;8.26;100.00
41334;BME280;27078;46.428;6.256;2023-04-24T05:31:46;96022.78;;;8.28;100.00
41334;BME280;27078;46.428;6.256;2023-04-24T05:34:11;96024.03;;;8.33;100.00
41334;BME280;27078;46.428;6.256;2023-04-24T05:36:37;96027.13;;;8.39;100.00
41334;BME280;27078;46.428;6.256;2023-04-24T05:39:02;96036.56;;;8.41;100.00
41334;BME280;27078;46.428;6.256;2023-04-24T05:41:30;96027.84;;;8.41;100.00
41334;BME280;27078;46.428;6.256;2023-04-24T05:43:55;96035.75;;;8.41;100.00
41334;BME280;27078;46.428;6.256;2023-04-24T05:46:20;96042.13;;;8.48;100.00
41334;BME280;27078;46.428;6.256;2023-04-24T05:48:46;96054.06;;;8.52;100.00
41334;BME280;27078;46.428;6.256;2023-04-24T05:51:11;96055.75;;;8.53;100.00
41334;BME280;27078;46.428;6.256;2023-04-24T05:53:36;96059.16;;;8.44;100.00
41334;BME280;27078;46.428;6.256;2023-04-24T05:56:02;96057.00;;;8.38;100.00
41334;BME280;27078;46.428;6.256;2023-04-24T05:58:27;96058.22;;;8.54;100.00
41334;BME280;27078;46.428;6.256;2023-04-24T06:00:52;96057.72;;;8.70;100.00
41334;BME280;27078;46.428;6.256;2023-04-24T06:03:18;96066.75;;;8.77;100.00
41334;BME280;27078;46.428;6.256;2023-04-24T06:05:43;96062.63;;;8.85;100.00
41334;BME280;27078;46.428;6.256;2023-04-24T06:08:09;96062.09;;;9.01;100.00
41334;BME280;27078;46.428;6.256;2023-04-24T06:10:35;96054.50;;;9.17;100.00
41334;BME280;27078;46.428;6.256;2023-04-24T06:13:00;96061.56;;;9.46;100.00
41334;BME280;27078;46.428;6.256;2023-04-24T06:15:29;96064.50;;;9.72;100.00
41334;BME280;27078;46.428;6.256;2023-04-24T06:17:56;96056.94;;;9.96;100.00
41334;BME280;27078;46.428;6.256;2023-04-24T06:20:21;96053.88;;;10.21;100.00
41334;BME280;27078;46.428;6.256;2023-04-24T06:22:47;96058.97;;;10.32;100.00
41334;BME280;27078;46.428;6.256;2023-04-24T06:25:12;96043.13;;;10.69;100.00
41334;BME280;27078;46.428;6.256;2023-04-24T06:27:38;96057.13;;;11.07;100.00
41334;BME280;27078;46.428;6.256;2023-04-24T06:30:03;96062.56;;;11.24;100.00
41334;BME280;27078;46.428;6.256;2023-04-24T06:32:29;96065.41;;;11.12;100.00
41334;BME280;27078;46.428;6.256;2023-04-24T06:34:56;96066.31;;;11.03;100.00
41334;BME280;27078;46.428;6.256;2023-04-24T06:37:21;96066.28;;;11.49;100.00
41334;BME280;27078;46.428;6.256;2023-04-24T06:39:47;96064.78;;;11.64;100.00
41334;BME280;27078;46.428;6.256;2023-04-24T06:42:12;96068.19;;;11.56;100.00
41334;BME280;27078;46.428;6.256;2023-04-24T06:44:37;96071.19;;;11.97;100.00
41334;BME280;27078;46.428;6.256;2023-04-24T06:47:09;96073.88;;;12.06;100.00
41334;BME280;27078;46.428;6.256;2023-04-24T06:49:38;96078.06;;;12.34;100.00
41334;BME280;27078;46.428;6.256;2023-04-24T06:52:03;96078.56;;;12.12;100.00
41334;BME280;27078;46.428;6.256;2023-04-24T06:54:30;96080.13;;;11.96;100.00
41334;BME280;27078;46.428;6.256;2023-04-24T06:56:56;96080.41;;;11.93;100.00
41334;BME280;27078;46.428;6.256;2023-04-24T06:59:25;96088.19;;;11.77;100.00
41334;BME280;27078;46.428;6.256;2023-04-24T07:01:50;96094.69;;;11.65;100.00
41334;BME280;27078;46.428;6.256;2023-04-24T07:04:16;96098.22;;;11.55;100.00
41334;BME280;27078;46.428;6.256;2023-04-24T07:06:42;96107.66;;;11.40;100.00
41334;BME280;27078;46.428;6.256;2023-04-24T07:09:08;96113.03;;;11.30;100.00
41334;BME280;27078;46.428;6.256;2023-04-24T07:11:34;96114.06;;;11.19;100.00
41334;BME280;27078;46.428;6.256;2023-04-24T07:14:01;96117.31;;;11.13;100.00
41334;BME280;27078;46.428;6.256;2023-04-24T07:16:28;96119.06;;;11.23;100.00
41334;BME280;27078;46.428;6.256;2023-04-24T07:18:53;96122.78;;;11.02;100.00
41334;BME280;27078;46.428;6.256;2023-04-24T07:21:19;96121.69;;;10.67;100.00
41334;BME280;27078;46.428;6.256;2023-04-24T07:23:44;96134.41;;;10.34;100.00
41334;BME280;27078;46.428;6.256;2023-04-24T07:26:09;96144.34;;;10.60;100.00
41334;BME280;27078;46.428;6.256;2023-04-24T07:28:35;96137.16;;;10.90;100.00
41334;BME280;27078;46.428;6.256;2023-04-24T07:31:00;96138.53;;;11.21;100.00
41334;BME280;27078;46.428;6.256;2023-04-24T07:33:26;96137.75;;;11.39;100.00
41334;BME280;27078;46.428;6.256;2023-04-24T07:35:51;96146.41;;;11.31;100.00
41334;BME280;27078;46.428;6.256;2023-04-24T07:38:17;96149.72;;;11.15;100.00
41334;BME280;27078;46.428;6.256;2023-04-24T07:40:46;96149.75;;;11.33;100.00
41334;BME280;27078;46.428;6.256;2023-04-24T07:43:11;96178.25;;;11.57;100.00
41334;BME280;27078;46.428;6.256;2023-04-24T07:45:36;96157.88;;;11.68;100.00
41334;BME280;27078;46.428;6.256;2023-04-24T07:48:03;96149.56;;;11.80;100.00
41334;BME280;27078;46.428;6.256;2023-04-24T07:50:28;96164.19;;;12.02;100.00
41334;BME280;27078;46.428;6.256;2023-04-24T07:52:53;96159.47;;;12.32;100.00
41334;BME280;27078;46.428;6.256;2023-04-24T07:55:19;96171.44;;;12.62;100.00
41334;BME280;27078;46.428;6.256;2023-04-24T07:57:44;96181.06;;;12.90;100.00
41334;BME280;27078;46.428;6.256;2023-04-24T08:00:10;96160.88;;;12.97;100.00
41334;BME280;27078;46.428;6.256;2023-04-24T08:02:36;96169.94;;;12.60;100.00
41334;BME280;27078;46.428;6.256;2023-04-24T08:05:01;96170.56;;;12.36;100.00
41334;BME280;27078;46.428;6.256;2023-04-24T08:07:28;96168.16;;;12.69;100.00
41334;BME280;27078;46.428;6.256;2023-04-24T08:09:53;96165.56;;;13.11;100.00
41334;BME280;27078;46.428;6.256;2023-04-24T08:12:19;96170.16;;;13.01;100.00
41334;BME280;27078;46.428;6.256;2023-04-24T08:14:45;96172.09;;;12.91;100.00
41334;BME280;27078;46.428;6.256;2023-04-24T08:17:10;96177.59;;;12.97;100.00
41334;BME280;27078;46.428;6.256;2023-04-24T08:19:35;96183.31;;;13.45;100.00
41334;BME280;27078;46.428;6.256;2023-04-24T08:22:01;96179.78;;;13.87;100.00
41334;BME280;27078;46.428;6.256;2023-04-24T08:24:26;96183.13;;;14.14;100.00
41334;BME280;27078;46.428;6.256;2023-04-24T08:26:52;96179.59;;;13.72;100.00
41334;BME280;27078;46.428;6.256;2023-04-24T08:29:24;96185.94;;;13.37;100.00
41334;BME280;27078;46.428;6.256;2023-04-24T08:31:51;96184.00;;;13.13;100.00
41334;BME280;27078;46.428;6.256;2023-04-24T08:34:16;96198.59;;;12.91;100.00
41334;BME280;27078;46.428;6.256;2023-04-24T08:36:43;96196.50;;;12.68;100.00
41334;BME280;27078;46.428;6.256;2023-04-24T08:39:08;96204.38;;;13.12;100.00
41334;BME280;27078;46.428;6.256;2023-04-24T08:42:05;96205.88;;;12.89;100.00
41334;BME280;27078;46.428;6.256;2023-04-24T08:44:34;96204.66;;;13.35;100.00
41334;BME280;27078;46.428;6.256;2023-04-24T08:50:43;96200.47;;;13.59;100.00
41334;BME280;27078;46.428;6.256;2023-04-24T09:08:13;96218.50;;;13.55;100.00
41334;BME280;27078;46.428;6.256;2023-04-24T09:14:55;96214.25;;;13.02;100.00
41334;BME280;27078;46.428;6.256;2023-04-24T09:18:08;96213.72;;;12.98;100.00
41334;BME280;27078;46.428;6.256;2023-04-24T09:21:23;96219.59;;;13.10;100.00
41334;BME280;27078;46.428;6.256;2023-04-24T09:24:40;96225.31;;;13.23;100.00
41334;BME280;27078;46.428;6.256;2023-04-24T09:27:58;96221.09;;;13.39;100.00
41334;BME280;27078;46.428;6.256;2023-04-24T09:31:21;96215.31;;;14.02;82.87
41334;BME280;27078;46.428;6.256;2023-04-24T09:34:28;96223.63;;;14.08;98.20
41334;BME280;27078;46.428;6.256;2023-04-24T09:37:49;96216.34;;;14.34;96.17
41334;BME280;27078;46.428;6.256;2023-04-24T09:41:00;96218.88;;;14.52;95.24
41334;BME280;27078;46.428;6.256;2023-04-24T09:44:30;96214.06;;;14.56;86.88
41334;BME280;27078;46.428;6.256;2023-04-24T09:47:58;96224.66;;;14.23;87.99
41334;BME280;27078;46.428;6.256;2023-04-24T09:51:07;96225.16;;;13.59;91.88
41334;BME280;27078;46.428;6.256;2023-04-24T09:54:20;96225.97;;;13.26;100.00
41334;BME280;27078;46.428;6.256;2023-04-24T10:04:57;96240.13;;;12.82;100.00
41334;BME280;27078;46.428;6.256;2023-04-24T10:08:23;96241.69;;;12.93;100.00
41334;BME280;27078;46.428;6.256;2023-04-24T10:11:35;96237.44;;;13.00;100.00
41334;BME280;27078;46.428;6.256;2023-04-24T10:14:45;96243.09;;;13.05;92.00
41334;BME280;27078;46.428;6.256;2023-04-24T10:18:00;96236.59;;;12.73;94.55
41334;BME280;27078;46.428;6.256;2023-04-24T10:21:39;96232.09;;;12.74;100.00
41334;BME280;27078;46.428;6.256;2023-04-24T10:25:19;96228.34;;;12.58;100.00
41334;BME280;27078;46.428;6.256;2023-04-24T10:32:03;96226.19;;;12.80;100.00
41334;BME280;27078;46.428;6.256;2023-04-24T10:35:17;96228.63;;;12.73;95.82
41334;BME280;27078;46.428;6.256;2023-04-24T10:38:25;96228.81;;;12.98;93.47
41334;BME280;27078;46.428;6.256;2023-04-24T10:41:31;96220.66;;;13.26;100.00
41334;BME280;27078;46.428;6.256;2023-04-24T10:44:51;96227.41;;;13.46;90.31
41334;BME280;27078;46.428;6.256;2023-04-24T10:48:14;96225.72;;;13.88;85.31
41334;BME280;27078;46.428;6.256;2023-04-24T10:51:26;96226.53;;;13.72;91.09
41334;BME280;27078;46.428;6.256;2023-04-24T11:01:54;96224.03;;;14.70;89.68
41334;BME280;27078;46.428;6.256;2023-04-24T11:05:03;96231.69;;;14.65;81.23
41334;BME280;27078;46.428;6.256;2023-04-24T11:08:24;96224.03;;;14.62;82.47
41334;BME280;27078;46.428;6.256;2023-04-24T11:11:45;96226.66;;;14.54;76.14
41334;BME280;27078;46.428;6.256;2023-04-24T11:18:14;96230.59;;;15.15;80.13
41334;BME280;27078;46.428;6.256;2023-04-24T11:21:25;96223.34;;;14.60;77.86
41334;BME280;27078;46.428;6.256;2023-04-24T11:24:50;96217.03;;;14.85;75.24
41334;BME280;27078;46.428;6.256;2023-04-24T11:28:03;96223.03;;;14.63;71.11
41334;BME280;27078;46.428;6.256;2023-04-24T11:34:57;96218.53;;;14.72;72.48
41334;BME280;27078;46.428;6.256;2023-04-24T11:38:07;96214.06;;;14.72;69.36
41334;BME280;27078;46.428;6.256;2023-04-24T11:41:24;96208.88;;;14.30;74.69
41334;BME280;27078;46.428;6.256;2023-04-24T11:44:36;96204.41;;;14.38;64.53
41334;BME280;27078;46.428;6.256;2023-04-24T11:47:52;96196.78;;;14.68;74.05
41334;BME280;27078;46.428;6.256;2023-04-24T11:51:02;96192.78;;;14.64;70.32
41334;BME280;27078;46.428;6.256;2023-04-24T11:54:13;96185.34;;;15.23;76.25
41334;BME280;27078;46.428;6.256;2023-04-24T11:57:23;96190.91;;;15.45;75.98
41334;BME280;27078;46.428;6.256;2023-04-24T12:00:42;96198.88;;;16.62;71.58
41334;BME280;27078;46.428;6.256;2023-04-24T12:04:01;96201.47;;;15.70;65.85
41334;BME280;27078;46.428;6.256;2023-04-24T12:07:22;96196.63;;;15.81;64.00
41334;BME280;27078;46.428;6.256;2023-04-24T12:10:31;96189.34;;;15.19;67.98
41334;BME280;27078;46.428;6.256;2023-04-24T12:13:50;96206.28;;;15.35;73.39
41334;BME280;27078;46.428;6.256;2023-04-24T12:17:02;96194.19;;;16.26;73.06
41334;BME280;27078;46.428;6.256;2023-04-24T12:20:10;96193.09;;;16.96;67.08
41334;BME280;27078;46.428;6.256;2023-04-24T12:26:44;96207.66;;;15.14;58.28
41334;BME280;27078;46.428;6.256;2023-04-24T12:30:10;96203.72;;;14.94;62.86
41334;BME280;27078;46.428;6.256;2023-04-24T12:33:28;96192.38;;;15.16;63.11
41334;BME280;27078;46.428;6.256;2023-04-24T12:36:44;96189.03;;;15.22;71.11
41334;BME280;27078;46.428;6.256;2023-04-24T12:43:26;96181.34;;;15.27;68.04
41334;BME280;27078;46.428;6.256;2023-04-24T12:46:39;96184.72;;;15.13;58.70
41334;BME280;27078;46.428;6.256;2023-04-24T12:49:47;96189.94;;;14.90;58.66
41334;BME280;27078;46.428;6.256;2023-04-24T12:52:54;96178.44;;;15.85;56.97
41334;BME280;27078;46.428;6.256;2023-04-24T12:56:33;96177.34;;;15.71;63.29
41334;BME280;27078;46.428;6.256;2023-04-24T12:59:44;96187.47;;;16.53;65.34
41334;BME280;27078;46.428;6.256;2023-04-24T13:02:54;96171.81;;;15.81;59.20
41334;BME280;27078;46.428;6.256;2023-04-24T13:06:01;96178.13;;;16.11;60.71
41334;BME280;27078;46.428;6.256;2023-04-24T13:09:09;96171.94;;;16.11;56.28
41334;BME280;27078;46.428;6.256;2023-04-24T13:12:20;96178.13;;;16.72;57.24
41334;BME280;27078;46.428;6.256;2023-04-24T13:15:29;96166.38;;;15.97;51.23
41334;BME280;27078;46.428;6.256;2023-04-24T13:22:34;96161.72;;;17.94;55.55
41334;BME280;27078;46.428;6.256;2023-04-24T13:26:05;96157.16;;;16.31;50.24
41334;BME280;27078;46.428;6.256;2023-04-24T13:29:22;96158.72;;;15.71;49.98
41334;BME280;27078;46.428;6.256;2023-04-24T13:32:32;96160.22;;;15.74;54.97
41334;BME280;27078;46.428;6.256;2023-04-24T13:35:47;96158.69;;;15.40;52.96
41334;BME280;27078;46.428;6.256;2023-04-24T13:38:53;96152.84;;;16.07;48.97
41334;BME280;27078;46.428;6.256;2023-04-24T13:42:02;96139.13;;;16.56;51.84
41334;BME280;27078;46.428;6.256;2023-04-24T13:45:12;96134.53;;;15.81;49.00
41334;BME280;27078;46.428;6.256;2023-04-24T13:48:30;96134.03;;;15.85;54.03
41334;BME280;27078;46.428;6.256;2023-04-24T13:51:40;96130.22;;;16.26;52.32
41334;BME280;27078;46.428;6.256;2023-04-24T13:54:52;96131.59;;;15.67;49.26
41334;BME280;27078;46.428;6.256;2023-04-24T13:58:01;96134.34;;;15.51;49.30
41334;BME280;27078;46.428;6.256;2023-04-24T14:01:11;96123.25;;;15.47;51.95
41334;BME280;27078;46.428;6.256;2023-04-24T14:04:19;96115.06;;;15.49;51.39
41334;BME280;27078;46.428;6.256;2023-04-24T14:07:27;96109.38;;;16.82;48.16
41334;BME280;27078;46.428;6.256;2023-04-24T14:10:33;96098.44;;;17.07;52.40
41334;BME280;27078;46.428;6.256;2023-04-24T14:13:47;96095.66;;;17.66;49.97
41334;BME280;27078;46.428;6.256;2023-04-24T14:16:55;96098.16;;;17.32;43.56
41334;BME280;27078;46.428;6.256;2023-04-24T14:20:04;96101.38;;;17.63;48.67
41334;BME280;27078;46.428;6.256;2023-04-24T14:23:24;96094.78;;;17.81;47.36
41334;BME280;27078;46.428;6.256;2023-04-24T14:26:29;96094.25;;;17.70;48.51
41334;BME280;27078;46.428;6.256;2023-04-24T14:29:42;96085.94;;;17.95;44.35
41334;BME280;27078;46.428;6.256;2023-04-24T14:32:47;96099.34;;;16.84;49.17
41334;BME280;27078;46.428;6.256;2023-04-24T14:35:53;96093.56;;;16.66;47.48
41334;BME280;27078;46.428;6.256;2023-04-24T14:38:56;96094.53;;;17.39;44.88
41334;BME280;27078;46.428;6.256;2023-04-24T14:42:10;96088.09;;;17.85;44.94
41334;BME280;27078;46.428;6.256;2023-04-24T14:45:18;96089.34;;;16.86;47.25
41334;BME280;27078;46.428;6.256;2023-04-24T14:48:33;96091.78;;;17.69;47.83
41334;BME280;27078;46.428;6.256;2023-04-24T14:51:40;96091.00;;;17.17;46.12
41334;BME280;27078;46.428;6.256;2023-04-24T14:54:54;96081.41;;;18.45;43.02
41334;BME280;27078;46.428;6.256;2023-04-24T14:57:59;96077.44;;;20.47;44.29
41334;BME280;27078;46.428;6.256;2023-04-24T15:01:04;96084.25;;;20.43;39.72
41334;BME280;27078;46.428;6.256;2023-04-24T15:04:13;96090.41;;;20.50;36.98
41334;BME280;27078;46.428;6.256;2023-04-24T15:07:19;96080.84;;;19.75;37.87